sensor_id;sensor_type;location;lat;lon;timestamp;P1;durP1;ratioP1;P2;durP2;ratioP2
2998;SDS011;1509;51.964;7.628;2023-05-10T00:00:52;5.93;;;4.00;;
2998;SDS011;1509;51.964;7.628;2023-05-10T00:03:17;6.73;;;4.43;;
2998;SDS011;1509;51.964;7.628;2023-05-10T00:05:43;7.27;;;4.33;;
2998;SDS011;1509;51.964;7.628;2023-05-10T00:08:09;10.40;;;4.80;;
2998;SDS011;1509;51.964;7.628;2023-05-10T00:10:34;6.00;;;4.80;;
2998;SDS011;1509;51.964;7.628;2023-05-10T00:13:01;8.53;;;5.53;;
2998;SDS011;1509;51.964;7.628;2023-05-10T00:15:26;9.17;;;6.30;;
2998;SDS011;1509;51.964;7.628;2023-05-10T00:17:52;8.77;;;5.43;;
2998;SDS011;1509;51.964;7.628;2023-05-10T00:20:18;8.70;;;6.20;;
2998;SDS011;1509;51.964;7.628;2023-05-10T00:22:47;7.07;;;5.77;;
2998;SDS011;1509;51.964;7.628;2023-05-10T00:25:12;8.17;;;5.50;;
2998;SDS011;1509;51.964;7.628;2023-05-10T00:27:38;8.87;;;5.87;;
2998;SDS011;1509;51.964;7.628;2023-05-10T00:30:04;11.90;;;6.97;;
2998;SDS011;1509;51.964;7.628;2023-05-10T00:32:31;8.27;;;5.93;;
2998;SDS011;1509;51.964;7.628;2023-05-10T00:34:57;6.97;;;5.30;;
2998;SDS011;1509;51.964;7.628;2023-05-10T00:37:23;8.40;;;5.83;;
2998;SDS011;1509;51.964;7.628;2023-05-10T00:39:49;10.83;;;6.57;;
2998;SDS011;1509;51.964;7.628;2023-05-10T00:42:16;9.37;;;6.37;;
2998;SDS011;1509;51.964;7.628;2023-05-10T00:44:42;10.70;;;6.77;;
2998;SDS011;1509;51.964;7.628;2023-05-10T00:47:07;11.47;;;6.60;;
2998;SDS011;1509;51.964;7.628;2023-05-10T00:49:34;16.00;;;9.27;;
2998;SDS011;1509;51.964;7.628;2023-05-10T00:52:01;11.17;;;7.07;;
2998;SDS011;1509;51.964;7.628;2023-05-10T00:54:27;11.00;;;7.23;;
2998;SDS011;1509;51.964;7.628;2023-05-10T00:56:53;10.50;;;7.27;;
2998;SDS011;1509;51.964;7.628;2023-05-10T00:59:19;10.70;;;6.30;;
2998;SDS011;1509;51.964;7.628;2023-05-10T01:01:47;7.90;;;5.83;;
2998;SDS011;1509;51.964;7.628;2023-05-10T01:04:13;9.30;;;6.53;;
2998;SDS011;1509;51.964;7.628;2023-05-10T01:06:40;12.17;;;7.20;;
2998;SDS011;1509;51.964;7.628;2023-05-10T01:09:06;12.77;;;6.43;;
2998;SDS011;1509;51.964;7.628;2023-05-10T01:11:35;11.73;;;7.10;;
2998;SDS011;1509;51.964;7.628;2023-05-10T01:14:02;12.93;;;6.90;;
2998;SDS011;1509;51.964;7.628;2023-05-10T01:16:29;9.10;;;6.33;;
2998;SDS011;1509;51.964;7.628;2023-05-10T01:19:09;10.90;;;6.17;;
2998;SDS011;1509;51.964;7.628;2023-05-10T01:21:48;7.87;;;5.47;;
2998;SDS011;1509;51.964;7.628;2023-05-10T01:24:30;9.50;;;6.40;;
2998;SDS011;1509;51.964;7.628;2023-05-10T01:30:27;9.88;;;6.18;;
2998;SDS011;1509;51.964;7.628;2023-05-10T01:33:18;6.73;;;4.27;;
2998;SDS011;1509;51.964;7.628;2023-05-10T01:35:47;5.13;;;3.27;;
2998;SDS011;1509;51.964;7.628;2023-05-10T01:38:17;7.25;;;4.40;;
2998;SDS011;1509;51.964;7.628;2023-05-10T01:43:33;4.93;;;3.13;;
2998;SDS011;1509;51.964;7.628;2023-05-10T01:46:02;5.30;;;3.33;;
2998;SDS011;1509;51.964;7.628;2023-05-10T01:48:57;3.83;;;2.67;;
2998;SDS011;1509;51.964;7.628;2023-05-10T01:51:25;5.53;;;3.15;;
2998;SDS011;1509;51.964;7.628;2023-05-10T01:53:58;2.90;;;1.83;;
2998;SDS011;1509;51.964;7.628;2023-05-10T01:56:29;2.80;;;1.40;;
2998;SDS011;1509;51.964;7.628;2023-05-10T01:58:56;4.30;;;1.98;;
2998;SDS011;1509;51.964;7.628;2023-05-10T02:01:22;2.60;;;1.73;;
2998;SDS011;1509;51.964;7.628;2023-05-10T02:03:51;2.90;;;1.70;;
2998;SDS011;1509;51.964;7.628;2023-05-10T02:06:18;2.50;;;1.37;;
2998;SDS011;1509;51.964;7.628;2023-05-10T02:08:44;3.58;;;1.92;;
2998;SDS011;1509;51.964;7.628;2023-05-10T02:11:12;2.60;;;1.83;;
2998;SDS011;1509;51.964;7.628;2023-05-10T02:13:39;3.10;;;1.80;;
2998;SDS011;1509;51.964;7.628;2023-05-10T02:16:05;3.40;;;2.20;;
2998;SDS011;1509;51.964;7.628;2023-05-10T02:18:32;3.07;;;2.50;;
2998;SDS011;1509;51.964;7.628;2023-05-10T02:21:00;4.10;;;2.70;;
2998;SDS011;1509;51.964;7.628;2023-05-10T02:23:27;5.72;;;3.40;;
2998;SDS011;1509;51.964;7.628;2023-05-10T02:25:53;6.22;;;3.88;;
2998;SDS011;1509;51.964;7.628;2023-05-10T02:28:21;5.10;;;2.77;;
2998;SDS011;1509;51.964;7.628;2023-05-10T02:30:48;9.70;;;4.45;;
2998;SDS011;1509;51.964;7.628;2023-05-10T02:33:15;9.35;;;4.60;;
2998;SDS011;1509;51.964;7.628;2023-05-10T02:35:41;6.47;;;3.57;;
2998;SDS011;1509;51.964;7.628;2023-05-10T02:38:07;4.67;;;3.20;;
2998;SDS011;1509;51.964;7.628;2023-05-10T02:40:34;7.75;;;5.40;;
2998;SDS011;1509;51.964;7.628;2023-05-10T02:43:01;8.73;;;4.53;;
2998;SDS011;1509;51.964;7.628;2023-05-10T02:45:29;8.40;;;4.93;;
2998;SDS011;1509;51.964;7.628;2023-05-10T02:47:56;10.52;;;7.20;;
2998;SDS011;1509;51.964;7.628;2023-05-10T02:50:22;7.33;;;5.37;;
2998;SDS011;1509;51.964;7.628;2023-05-10T02:52:51;11.10;;;5.60;;
2998;SDS011;1509;51.964;7.628;2023-05-10T02:55:19;13.55;;;7.57;;
2998;SDS011;1509;51.964;7.628;2023-05-10T02:57:55;8.80;;;5.00;;
2998;SDS011;1509;51.964;7.628;2023-05-10T03:00:24;10.37;;;5.90;;
2998;SDS011;1509;51.964;7.628;2023-05-10T03:02:50;12.65;;;7.18;;
2998;SDS011;1509;51.964;7.628;2023-05-10T03:05:16;12.30;;;7.15;;
2998;SDS011;1509;51.964;7.628;2023-05-10T03:07:42;8.37;;;5.90;;
2998;SDS011;1509;51.964;7.628;2023-05-10T03:10:08;7.87;;;5.30;;
2998;SDS011;1509;51.964;7.628;2023-05-10T03:20:47;9.27;;;6.00;;
2998;SDS011;1509;51.964;7.628;2023-05-10T03:23:20;12.60;;;6.88;;
2998;SDS011;1509;51.964;7.628;2023-05-10T03:25:48;11.15;;;7.22;;
2998;SDS011;1509;51.964;7.628;2023-05-10T03:28:16;7.87;;;4.80;;
2998;SDS011;1509;51.964;7.628;2023-05-10T03:30:43;7.93;;;5.20;;
2998;SDS011;1509;51.964;7.628;2023-05-10T03:33:09;11.37;;;5.60;;
2998;SDS011;1509;51.964;7.628;2023-05-10T03:35:36;11.20;;;7.53;;
2998;SDS011;1509;51.964;7.628;2023-05-10T03:38:01;13.43;;;5.70;;
2998;SDS011;1509;51.964;7.628;2023-05-10T03:40:27;9.23;;;5.37;;
2998;SDS011;1509;51.964;7.628;2023-05-10T03:42:56;6.73;;;4.90;;
2998;SDS011;1509;51.964;7.628;2023-05-10T03:45:22;10.93;;;5.10;;
2998;SDS011;1509;51.964;7.628;2023-05-10T03:47:48;8.47;;;5.43;;
2998;SDS011;1509;51.964;7.628;2023-05-10T03:50:13;8.00;;;5.30;;
2998;SDS011;1509;51.964;7.628;2023-05-10T03:52:39;12.37;;;6.13;;
2998;SDS011;1509;51.964;7.628;2023-05-10T03:55:05;10.40;;;5.43;;
2998;SDS011;1509;51.964;7.628;2023-05-10T03:57:31;9.87;;;5.67;;
2998;SDS011;1509;51.964;7.628;2023-05-10T03:59:57;9.90;;;5.90;;
2998;SDS011;1509;51.964;7.628;2023-05-10T04:02:23;13.70;;;7.30;;
2998;SDS011;1509;51.964;7.628;2023-05-10T04:04:51;9.53;;;5.83;;
2998;SDS011;1509;51.964;7.628;2023-05-10T04:07:17;10.30;;;6.37;;
2998;SDS011;1509;51.964;7.628;2023-05-10T04:09:43;10.70;;;5.50;;
2998;SDS011;1509;51.964;7.628;2023-05-10T04:12:08;11.23;;;5.70;;
2998;SDS011;1509;51.964;7.628;2023-05-10T04:14:34;13.13;;;8.25;;
2998;SDS011;1509;51.964;7.628;2023-05-10T04:17:00;14.05;;;8.10;;
2998;SDS011;1509;51.964;7.628;2023-05-10T04:19:29;10.23;;;6.53;;
2998;SDS011;1509;51.964;7.628;2023-05-10T04:21:55;9.87;;;7.10;;
2998;SDS011;1509;51.964;7.628;2023-05-10T04:24:21;11.80;;;6.50;;
2998;SDS011;1509;51.964;7.628;2023-05-10T04:26:47;9.53;;;5.60;;
2998;SDS011;1509;51.964;7.628;2023-05-10T04:29:16;9.90;;;6.50;;
2998;SDS011;1509;51.964;7.628;2023-05-10T04:31:42;8.30;;;5.20;;
2998;SDS011;1509;51.964;7.628;2023-05-10T04:34:08;8.67;;;4.70;;
2998;SDS011;1509;51.964;7.628;2023-05-10T04:36:33;10.80;;;6.10;;
2998;SDS011;1509;51.964;7.628;2023-05-10T04:39:01;11.68;;;7.35;;
2998;SDS011;1509;51.964;7.628;2023-05-10T04:41:28;9.50;;;6.47;;
2998;SDS011;1509;51.964;7.628;2023-05-10T04:43:53;12.27;;;6.00;;
2998;SDS011;1509;51.964;7.628;2023-05-10T04:46:19;9.07;;;6.17;;
2998;SDS011;1509;51.964;7.628;2023-05-10T04:48:45;9.43;;;6.37;;
2998;SDS011;1509;51.964;7.628;2023-05-10T04:51:11;9.60;;;6.20;;
2998;SDS011;1509;51.964;7.628;2023-05-10T04:53:37;11.50;;;6.90;;
2998;SDS011;1509;51.964;7.628;2023-05-10T04:56:03;12.93;;;7.13;;
2998;SDS011;1509;51.964;7.628;2023-05-10T04:58:29;11.60;;;6.97;;
2998;SDS011;1509;51.964;7.628;2023-05-10T05:00:55;17.03;;;10.73;;
2998;SDS011;1509;51.964;7.628;2023-05-10T05:03:21;14.20;;;8.13;;
2998;SDS011;1509;51.964;7.628;2023-05-10T05:05:47;12.33;;;8.37;;
2998;SDS011;1509;51.964;7.628;2023-05-10T05:08:13;12.50;;;8.40;;
2998;SDS011;1509;51.964;7.628;2023-05-10T05:10:39;16.27;;;8.83;;
2998;SDS011;1509;51.964;7.628;2023-05-10T05:13:04;20.65;;;13.00;;
2998;SDS011;1509;51.964;7.628;2023-05-10T05:15:30;16.70;;;10.27;;
2998;SDS011;1509;51.964;7.628;2023-05-10T05:17:56;20.07;;;10.07;;
2998;SDS011;1509;51.964;7.628;2023-05-10T05:20:22;20.13;;;10.40;;
2998;SDS011;1509;51.964;7.628;2023-05-10T05:22:48;21.60;;;11.43;;
2998;SDS011;1509;51.964;7.628;2023-05-10T05:25:14;18.27;;;10.73;;
2998;SDS011;1509;51.964;7.628;2023-05-10T05:27:40;23.27;;;11.50;;
2998;SDS011;1509;51.964;7.628;2023-05-10T05:30:07;24.67;;;13.50;;
2998;SDS011;1509;51.964;7.628;2023-05-10T05:32:33;26.47;;;13.10;;
2998;SDS011;1509;51.964;7.628;2023-05-10T05:34:59;29.40;;;12.73;;
2998;SDS011;1509;51.964;7.628;2023-05-10T05:37:25;25.13;;;12.63;;
2998;SDS011;1509;51.964;7.628;2023-05-10T05:39:50;28.07;;;14.17;;
2998;SDS011;1509;51.964;7.628;2023-05-10T05:42:16;19.83;;;12.17;;
2998;SDS011;1509;51.964;7.628;2023-05-10T05:44:43;32.20;;;14.47;;
2998;SDS011;1509;51.964;7.628;2023-05-10T05:47:09;33.03;;;15.37;;
2998;SDS011;1509;51.964;7.628;2023-05-10T05:49:35;27.50;;;14.20;;
2998;SDS011;1509;51.964;7.628;2023-05-10T05:52:01;29.60;;;13.27;;
2998;SDS011;1509;51.964;7.628;2023-05-10T05:54:28;30.77;;;15.40;;
2998;SDS011;1509;51.964;7.628;2023-05-10T05:56:55;34.03;;;16.50;;
2998;SDS011;1509;51.964;7.628;2023-05-10T05:59:21;38.63;;;16.60;;
2998;SDS011;1509;51.964;7.628;2023-05-10T06:01:47;39.77;;;17.27;;
2998;SDS011;1509;51.964;7.628;2023-05-10T06:04:13;42.37;;;19.00;;
2998;SDS011;1509;51.964;7.628;2023-05-10T06:06:38;44.93;;;18.87;;
2998;SDS011;1509;51.964;7.628;2023-05-10T06:09:04;44.60;;;18.83;;
2998;SDS011;1509;51.964;7.628;2023-05-10T06:11:30;44.93;;;19.97;;
2998;SDS011;1509;51.964;7.628;2023-05-10T06:13:57;45.47;;;18.70;;
2998;SDS011;1509;51.964;7.628;2023-05-10T06:16:26;51.53;;;20.50;;
2998;SDS011;1509;51.964;7.628;2023-05-10T06:18:52;42.03;;;17.70;;
2998;SDS011;1509;51.964;7.628;2023-05-10T06:21:20;44.27;;;19.73;;
2998;SDS011;1509;51.964;7.628;2023-05-10T06:23:46;51.10;;;20.60;;
2998;SDS011;1509;51.964;7.628;2023-05-10T06:26:12;50.00;;;19.40;;
2998;SDS011;1509;51.964;7.628;2023-05-10T06:28:38;57.20;;;20.60;;
2998;SDS011;1509;51.964;7.628;2023-05-10T06:31:05;46.27;;;19.23;;
2998;SDS011;1509;51.964;7.628;2023-05-10T06:33:31;35.60;;;17.90;;
2998;SDS011;1509;51.964;7.628;2023-05-10T06:35:57;43.97;;;19.60;;
2998;SDS011;1509;51.964;7.628;2023-05-10T06:38:23;39.30;;;18.60;;
2998;SDS011;1509;51.964;7.628;2023-05-10T06:40:48;37.90;;;17.47;;
2998;SDS011;1509;51.964;7.628;2023-05-10T06:43:14;32.67;;;15.73;;
2998;SDS011;1509;51.964;7.628;2023-05-10T06:45:40;40.37;;;15.10;;
2998;SDS011;1509;51.964;7.628;2023-05-10T06:48:06;33.83;;;15.30;;
2998;SDS011;1509;51.964;7.628;2023-05-10T06:50:31;36.53;;;14.83;;
2998;SDS011;1509;51.964;7.628;2023-05-10T06:52:58;32.57;;;16.50;;
2998;SDS011;1509;51.964;7.628;2023-05-10T06:55:24;33.90;;;14.70;;
2998;SDS011;1509;51.964;7.628;2023-05-10T06:57:50;33.57;;;16.40;;
2998;SDS011;1509;51.964;7.628;2023-05-10T07:00:15;45.97;;;20.13;;
2998;SDS011;1509;51.964;7.628;2023-05-10T07:02:42;44.63;;;20.00;;
2998;SDS011;1509;51.964;7.628;2023-05-10T07:05:10;49.97;;;20.17;;
2998;SDS011;1509;51.964;7.628;2023-05-10T07:07:36;51.97;;;21.23;;
2998;SDS011;1509;51.964;7.628;2023-05-10T07:10:02;54.00;;;20.80;;
2998;SDS011;1509;51.964;7.628;2023-05-10T07:12:28;50.03;;;23.37;;
2998;SDS011;1509;51.964;7.628;2023-05-10T07:14:54;54.93;;;22.90;;
2998;SDS011;1509;51.964;7.628;2023-05-10T07:17:20;59.30;;;22.83;;
2998;SDS011;1509;51.964;7.628;2023-05-10T07:19:45;54.73;;;24.57;;
2998;SDS011;1509;51.964;7.628;2023-05-10T07:22:11;62.43;;;24.60;;
2998;SDS011;1509;51.964;7.628;2023-05-10T07:24:37;63.00;;;25.07;;
2998;SDS011;1509;51.964;7.628;2023-05-10T07:27:02;59.57;;;25.53;;
2998;SDS011;1509;51.964;7.628;2023-05-10T07:29:31;79.37;;;28.50;;
2998;SDS011;1509;51.964;7.628;2023-05-10T07:32:00;67.23;;;29.90;;
2998;SDS011;1509;51.964;7.628;2023-05-10T07:34:26;74.53;;;29.17;;
2998;SDS011;1509;51.964;7.628;2023-05-10T07:36:52;60.83;;;28.77;;
2998;SDS011;1509;51.964;7.628;2023-05-10T07:39:22;64.23;;;28.93;;
2998;SDS011;1509;51.964;7.628;2023-05-10T07:41:47;66.90;;;28.70;;
2998;SDS011;1509;51.964;7.628;2023-05-10T07:44:13;63.17;;;28.57;;
2998;SDS011;1509;51.964;7.628;2023-05-10T07:46:39;58.17;;;27.73;;
2998;SDS011;1509;51.964;7.628;2023-05-10T07:49:04;68.43;;;27.60;;
2998;SDS011;1509;51.964;7.628;2023-05-10T07:51:30;73.43;;;29.17;;
2998;SDS011;1509;51.964;7.628;2023-05-10T07:53:56;67.37;;;29.30;;
2998;SDS011;1509;51.964;7.628;2023-05-10T07:56:28;56.40;;;28.70;;
2998;SDS011;1509;51.964;7.628;2023-05-10T07:58:57;57.00;;;25.67;;
2998;SDS011;1509;51.964;7.628;2023-05-10T08:01:23;51.20;;;25.10;;
2998;SDS011;1509;51.964;7.628;2023-05-10T08:03:49;56.77;;;26.37;;
2998;SDS011;1509;51.964;7.628;2023-05-10T08:06:16;52.60;;;25.30;;
2998;SDS011;1509;51.964;7.628;2023-05-10T08:08:43;49.97;;;23.77;;
2998;SDS011;1509;51.964;7.628;2023-05-10T08:11:18;49.63;;;24.20;;
2998;SDS011;1509;51.964;7.628;2023-05-10T08:13:45;48.90;;;24.77;;
2998;SDS011;1509;51.964;7.628;2023-05-10T08:16:14;41.17;;;21.73;;
2998;SDS011;1509;51.964;7.628;2023-05-10T08:18:40;37.77;;;20.40;;
2998;SDS011;1509;51.964;7.628;2023-05-10T08:21:06;33.57;;;18.53;;
2998;SDS011;1509;51.964;7.628;2023-05-10T08:23:32;37.60;;;20.13;;
2998;SDS011;1509;51.964;7.628;2023-05-10T08:26:00;33.83;;;19.37;;
2998;SDS011;1509;51.964;7.628;2023-05-10T08:28:26;38.77;;;20.60;;
2998;SDS011;1509;51.964;7.628;2023-05-10T08:30:52;34.50;;;19.50;;
2998;SDS011;1509;51.964;7.628;2023-05-10T08:33:18;44.73;;;19.80;;
2998;SDS011;1509;51.964;7.628;2023-05-10T08:35:43;38.40;;;19.87;;
2998;SDS011;1509;51.964;7.628;2023-05-10T08:38:09;38.93;;;19.57;;
2998;SDS011;1509;51.964;7.628;2023-05-10T08:40:36;33.37;;;19.57;;
2998;SDS011;1509;51.964;7.628;2023-05-10T08:45:33;35.03;;;17.90;;
2998;SDS011;1509;51.964;7.628;2023-05-10T08:48:01;33.60;;;18.13;;
2998;SDS011;1509;51.964;7.628;2023-05-10T08:50:30;29.47;;;18.77;;
2998;SDS011;1509;51.964;7.628;2023-05-10T08:53:08;37.10;;;18.40;;
2998;SDS011;1509;51.964;7.628;2023-05-10T08:55:36;33.20;;;17.80;;
2998;SDS011;1509;51.964;7.628;2023-05-10T08:58:03;32.13;;;18.27;;
2998;SDS011;1509;51.964;7.628;2023-05-10T09:00:29;34.67;;;20.10;;
2998;SDS011;1509;51.964;7.628;2023-05-10T09:02:59;31.87;;;18.20;;
2998;SDS011;1509;51.964;7.628;2023-05-10T09:05:26;34.80;;;17.50;;
2998;SDS011;1509;51.964;7.628;2023-05-10T09:07:52;25.83;;;15.20;;
2998;SDS011;1509;51.964;7.628;2023-05-10T09:10:20;27.70;;;17.67;;
2998;SDS011;1509;51.964;7.628;2023-05-10T09:12:48;29.47;;;16.80;;
2998;SDS011;1509;51.964;7.628;2023-05-10T09:15:17;29.81;;;13.99;;
2998;SDS011;1509;51.964;7.628;2023-05-10T09:17:45;26.03;;;16.20;;
2998;SDS011;1509;51.964;7.628;2023-05-10T09:20:11;33.63;;;18.03;;
2998;SDS011;1509;51.964;7.628;2023-05-10T09:22:37;27.00;;;16.03;;
2998;SDS011;1509;51.964;7.628;2023-05-10T09:25:06;29.23;;;15.80;;
2998;SDS011;1509;51.964;7.628;2023-05-10T09:27:34;24.00;;;13.60;;
2998;SDS011;1509;51.964;7.628;2023-05-10T09:30:04;29.07;;;15.60;;
2998;SDS011;1509;51.964;7.628;2023-05-10T09:35:11;24.57;;;15.03;;
2998;SDS011;1509;51.964;7.628;2023-05-10T09:37:41;23.93;;;14.37;;
2998;SDS011;1509;51.964;7.628;2023-05-10T09:40:15;28.47;;;15.27;;
2998;SDS011;1509;51.964;7.628;2023-05-10T09:42:42;26.10;;;14.67;;
2998;SDS011;1509;51.964;7.628;2023-05-10T09:45:16;22.73;;;13.83;;
2998;SDS011;1509;51.964;7.628;2023-05-10T09:47:42;24.07;;;13.77;;
2998;SDS011;1509;51.964;7.628;2023-05-10T09:50:09;19.53;;;12.93;;
2998;SDS011;1509;51.964;7.628;2023-05-10T09:52:47;23.87;;;14.67;;
2998;SDS011;1509;51.964;7.628;2023-05-10T09:55:14;25.17;;;14.30;;
2998;SDS011;1509;51.964;7.628;2023-05-10T09:57:41;19.27;;;12.83;;
2998;SDS011;1509;51.964;7.628;2023-05-10T10:00:06;22.67;;;13.47;;
2998;SDS011;1509;51.964;7.628;2023-05-10T10:02:35;19.67;;;13.13;;
2998;SDS011;1509;51.964;7.628;2023-05-10T10:05:01;20.50;;;13.73;;
2998;SDS011;1509;51.964;7.628;2023-05-10T10:07:30;21.10;;;12.47;;
2998;SDS011;1509;51.964;7.628;2023-05-10T10:10:03;28.43;;;14.57;;
2998;SDS011;1509;51.964;7.628;2023-05-10T10:12:30;27.13;;;12.77;;
2998;SDS011;1509;51.964;7.628;2023-05-10T10:14:56;19.47;;;12.10;;
2998;SDS011;1509;51.964;7.628;2023-05-10T10:17:25;23.97;;;12.37;;
2998;SDS011;1509;51.964;7.628;2023-05-10T10:19:53;22.70;;;11.60;;
2998;SDS011;1509;51.964;7.628;2023-05-10T10:22:20;23.77;;;13.60;;
2998;SDS011;1509;51.964;7.628;2023-05-10T10:24:45;22.17;;;12.73;;
2998;SDS011;1509;51.964;7.628;2023-05-10T10:27:15;20.23;;;12.97;;
2998;SDS011;1509;51.964;7.628;2023-05-10T10:29:50;21.67;;;12.50;;
2998;SDS011;1509;51.964;7.628;2023-05-10T10:35:12;22.30;;;12.17;;
2998;SDS011;1509;51.964;7.628;2023-05-10T10:37:41;23.20;;;13.67;;
2998;SDS011;1509;51.964;7.628;2023-05-10T10:42:57;18.97;;;12.77;;
2998;SDS011;1509;51.964;7.628;2023-05-10T10:45:43;20.77;;;12.90;;
2998;SDS011;1509;51.964;7.628;2023-05-10T10:48:22;20.23;;;13.75;;
2998;SDS011;1509;51.964;7.628;2023-05-10T10:50:57;18.00;;;12.00;;
2998;SDS011;1509;51.964;7.628;2023-05-10T10:53:25;17.30;;;11.57;;
2998;SDS011;1509;51.964;7.628;2023-05-10T10:56:01;20.73;;;12.93;;
2998;SDS011;1509;51.964;7.628;2023-05-10T10:58:28;19.58;;;12.52;;
2998;SDS011;1509;51.964;7.628;2023-05-10T11:04:17;18.90;;;13.10;;
2998;SDS011;1509;51.964;7.628;2023-05-10T11:06:47;21.10;;;11.60;;
2998;SDS011;1509;51.964;7.628;2023-05-10T11:09:14;23.90;;;11.43;;
2998;SDS011;1509;51.964;7.628;2023-05-10T11:11:52;21.08;;;13.40;;
2998;SDS011;1509;51.964;7.628;2023-05-10T11:14:22;22.63;;;12.57;;
2998;SDS011;1509;51.964;7.628;2023-05-10T11:16:49;19.67;;;13.32;;
2998;SDS011;1509;51.964;7.628;2023-05-10T11:19:15;16.20;;;11.83;;
2998;SDS011;1509;51.964;7.628;2023-05-10T11:24:56;19.03;;;12.40;;
2998;SDS011;1509;51.964;7.628;2023-05-10T11:27:25;16.90;;;12.60;;
2998;SDS011;1509;51.964;7.628;2023-05-10T11:29:51;20.53;;;12.90;;
2998;SDS011;1509;51.964;7.628;2023-05-10T11:32:17;26.23;;;13.90;;
2998;SDS011;1509;51.964;7.628;2023-05-10T11:34:46;18.53;;;12.27;;
2998;SDS011;1509;51.964;7.628;2023-05-10T11:37:15;20.90;;;12.80;;
2998;SDS011;1509;51.964;7.628;2023-05-10T11:39:45;20.40;;;14.17;;
2998;SDS011;1509;51.964;7.628;2023-05-10T11:42:12;22.80;;;14.40;;
2998;SDS011;1509;51.964;7.628;2023-05-10T11:44:38;21.33;;;13.47;;
2998;SDS011;1509;51.964;7.628;2023-05-10T11:47:06;24.00;;;13.80;;
2998;SDS011;1509;51.964;7.628;2023-05-10T11:49:32;19.60;;;11.90;;
2998;SDS011;1509;51.964;7.628;2023-05-10T11:52:09;20.40;;;11.73;;
2998;SDS011;1509;51.964;7.628;2023-05-10T11:54:36;13.37;;;9.90;;
2998;SDS011;1509;51.964;7.628;2023-05-10T11:57:02;15.25;;;11.25;;
2998;SDS011;1509;51.964;7.628;2023-05-10T11:59:28;17.20;;;11.80;;
2998;SDS011;1509;51.964;7.628;2023-05-10T12:01:54;17.30;;;11.20;;
2998;SDS011;1509;51.964;7.628;2023-05-10T12:04:20;16.53;;;11.57;;
2998;SDS011;1509;51.964;7.628;2023-05-10T12:06:46;15.73;;;10.20;;
2998;SDS011;1509;51.964;7.628;2023-05-10T12:09:12;18.90;;;11.10;;
2998;SDS011;1509;51.964;7.628;2023-05-10T12:11:38;21.23;;;11.70;;
2998;SDS011;1509;51.964;7.628;2023-05-10T12:14:05;16.07;;;11.07;;
2998;SDS011;1509;51.964;7.628;2023-05-10T12:16:31;14.90;;;9.90;;
2998;SDS011;1509;51.964;7.628;2023-05-10T12:19:00;17.67;;;11.23;;
2998;SDS011;1509;51.964;7.628;2023-05-10T12:21:27;16.90;;;10.10;;
2998;SDS011;1509;51.964;7.628;2023-05-10T12:23:58;15.90;;;11.10;;
2998;SDS011;1509;51.964;7.628;2023-05-10T12:26:25;19.03;;;12.10;;
2998;SDS011;1509;51.964;7.628;2023-05-10T12:28:53;17.07;;;10.60;;
2998;SDS011;1509;51.964;7.628;2023-05-10T12:34:32;16.30;;;10.53;;
2998;SDS011;1509;51.964;7.628;2023-05-10T12:40:32;18.57;;;11.00;;
2998;SDS011;1509;51.964;7.628;2023-05-10T12:42:58;14.38;;;10.82;;
2998;SDS011;1509;51.964;7.628;2023-05-10T12:45:24;14.13;;;9.17;;
2998;SDS011;1509;51.964;7.628;2023-05-10T12:47:49;16.70;;;9.77;;
2998;SDS011;1509;51.964;7.628;2023-05-10T12:50:18;15.20;;;10.00;;
2998;SDS011;1509;51.964;7.628;2023-05-10T12:52:43;13.60;;;8.53;;
2998;SDS011;1509;51.964;7.628;2023-05-10T12:55:09;11.07;;;8.30;;
2998;SDS011;1509;51.964;7.628;2023-05-10T12:57:35;10.40;;;7.13;;
2998;SDS011;1509;51.964;7.628;2023-05-10T13:00:01;13.43;;;8.83;;
2998;SDS011;1509;51.964;7.628;2023-05-10T13:02:26;11.37;;;7.20;;
2998;SDS011;1509;51.964;7.628;2023-05-10T13:04:52;11.13;;;7.60;;
2998;SDS011;1509;51.964;7.628;2023-05-10T13:07:18;10.10;;;8.10;;
2998;SDS011;1509;51.964;7.628;2023-05-10T13:09:44;12.55;;;7.60;;
2998;SDS011;1509;51.964;7.628;2023-05-10T13:12:10;11.30;;;8.50;;
2998;SDS011;1509;51.964;7.628;2023-05-10T13:14:35;14.30;;;8.07;;
2998;SDS011;1509;51.964;7.628;2023-05-10T13:17:01;12.93;;;8.00;;
2998;SDS011;1509;51.964;7.628;2023-05-10T13:19:26;15.07;;;8.50;;
2998;SDS011;1509;51.964;7.628;2023-05-10T13:21:52;11.27;;;8.90;;
2998;SDS011;1509;51.964;7.628;2023-05-10T13:24:18;15.20;;;10.50;;
2998;SDS011;1509;51.964;7.628;2023-05-10T13:26:44;12.03;;;7.90;;
2998;SDS011;1509;51.964;7.628;2023-05-10T13:29:09;9.93;;;7.37;;
2998;SDS011;1509;51.964;7.628;2023-05-10T13:31:35;14.67;;;8.77;;
2998;SDS011;1509;51.964;7.628;2023-05-10T13:34:01;14.47;;;8.30;;
2998;SDS011;1509;51.964;7.628;2023-05-10T13:36:27;15.70;;;9.60;;
2998;SDS011;1509;51.964;7.628;2023-05-10T13:38:53;20.53;;;10.33;;
2998;SDS011;1509;51.964;7.628;2023-05-10T13:41:18;16.00;;;9.40;;
2998;SDS011;1509;51.964;7.628;2023-05-10T13:43:44;17.57;;;10.70;;
2998;SDS011;1509;51.964;7.628;2023-05-10T13:46:10;20.27;;;11.87;;
2998;SDS011;1509;51.964;7.628;2023-05-10T13:48:35;20.80;;;12.97;;
2998;SDS011;1509;51.964;7.628;2023-05-10T13:51:04;21.87;;;12.77;;
2998;SDS011;1509;51.964;7.628;2023-05-10T13:53:30;18.80;;;13.07;;
2998;SDS011;1509;51.964;7.628;2023-05-10T13:55:56;24.77;;;13.87;;
2998;SDS011;1509;51.964;7.628;2023-05-10T13:58:22;21.70;;;13.27;;
2998;SDS011;1509;51.964;7.628;2023-05-10T14:00:48;23.13;;;14.17;;
2998;SDS011;1509;51.964;7.628;2023-05-10T14:03:14;23.93;;;13.80;;
2998;SDS011;1509;51.964;7.628;2023-05-10T14:05:39;20.17;;;13.70;;
2998;SDS011;1509;51.964;7.628;2023-05-10T14:08:05;23.10;;;13.80;;
2998;SDS011;1509;51.964;7.628;2023-05-10T14:10:31;22.80;;;13.00;;
2998;SDS011;1509;51.964;7.628;2023-05-10T14:12:56;23.63;;;14.13;;
2998;SDS011;1509;51.964;7.628;2023-05-10T14:15:25;17.53;;;11.60;;
2998;SDS011;1509;51.964;7.628;2023-05-10T14:17:50;18.43;;;11.43;;
2998;SDS011;1509;51.964;7.628;2023-05-10T14:20:16;20.03;;;11.20;;
2998;SDS011;1509;51.964;7.628;2023-05-10T14:22:50;16.83;;;11.80;;
2998;SDS011;1509;51.964;7.628;2023-05-10T14:25:19;18.83;;;11.23;;
2998;SDS011;1509;51.964;7.628;2023-05-10T14:27:45;20.13;;;11.77;;
2998;SDS011;1509;51.964;7.628;2023-05-10T14:30:13;19.60;;;10.77;;
2998;SDS011;1509;51.964;7.628;2023-05-10T14:32:39;17.50;;;10.77;;
2998;SDS011;1509;51.964;7.628;2023-05-10T14:35:08;19.47;;;11.47;;
2998;SDS011;1509;51.964;7.628;2023-05-10T14:37:34;17.20;;;10.70;;
2998;SDS011;1509;51.964;7.628;2023-05-10T14:40:00;14.20;;;9.30;;
2998;SDS011;1509;51.964;7.628;2023-05-10T14:42:26;18.33;;;10.57;;
2998;SDS011;1509;51.964;7.628;2023-05-10T14:44:54;14.00;;;9.63;;
2998;SDS011;1509;51.964;7.628;2023-05-10T14:47:20;15.95;;;10.02;;
2998;SDS011;1509;51.964;7.628;2023-05-10T14:49:46;16.60;;;10.27;;
2998;SDS011;1509;51.964;7.628;2023-05-10T14:52:11;18.57;;;12.27;;
2998;SDS011;1509;51.964;7.628;2023-05-10T14:54:39;15.90;;;9.70;;
2998;SDS011;1509;51.964;7.628;2023-05-10T14:57:05;19.30;;;10.23;;
2998;SDS011;1509;51.964;7.628;2023-05-10T14:59:31;18.73;;;11.40;;
2998;SDS011;1509;51.964;7.628;2023-05-10T15:01:57;20.60;;;11.37;;
2998;SDS011;1509;51.964;7.628;2023-05-10T15:04:26;16.40;;;10.60;;
2998;SDS011;1509;51.964;7.628;2023-05-10T15:06:52;19.07;;;12.70;;
2998;SDS011;1509;51.964;7.628;2023-05-10T15:09:23;20.73;;;11.53;;
2998;SDS011;1509;51.964;7.628;2023-05-10T15:11:49;19.43;;;12.30;;
2998;SDS011;1509;51.964;7.628;2023-05-10T15:14:15;20.83;;;12.63;;
2998;SDS011;1509;51.964;7.628;2023-05-10T15:16:41;16.60;;;11.53;;
2998;SDS011;1509;51.964;7.628;2023-05-10T15:19:06;20.53;;;11.90;;
2998;SDS011;1509;51.964;7.628;2023-05-10T15:21:32;15.00;;;10.13;;
2998;SDS011;1509;51.964;7.628;2023-05-10T15:24:03;16.13;;;10.17;;
2998;SDS011;1509;51.964;7.628;2023-05-10T15:26:30;12.67;;;8.10;;
2998;SDS011;1509;51.964;7.628;2023-05-10T15:28:55;13.80;;;8.50;;
2998;SDS011;1509;51.964;7.628;2023-05-10T15:31:21;11.80;;;7.97;;
2998;SDS011;1509;51.964;7.628;2023-05-10T15:33:47;13.20;;;9.37;;